createdAt,value
2019-06-10T00:01:14.538Z,60.70
2019-06-10T00:02:36.133Z,60.70
2019-06-10T00:03:57.832Z,60.70
2019-06-10T00:05:21.480Z,60.60
2019-06-10T00:06:42.622Z,60.60
2019-06-10T00:08:05.774Z,60.70
2019-06-10T00:09:27.431Z,60.70
2019-06-10T00:10:50.927Z,60.60
2019-06-10T00:12:12.874Z,60.70
2019-06-10T00:13:34.539Z,60.60
2019-06-10T00:14:56.695Z,60.70
2019-06-10T00:16:20.643Z,60.70
2019-06-10T00:17:52.720Z,60.60
2019-06-10T00:19:06.802Z,60.70
2019-06-10T00:20:27.319Z,60.60
2019-06-10T00:21:50.890Z,60.60
2019-06-10T00:23:12.665Z,60.70
2019-06-10T00:24:34.149Z,60.70
2019-06-10T00:25:55.519Z,60.70
2019-06-10T00:27:17.348Z,60.80
2019-06-10T00:28:40.551Z,60.80
2019-06-10T00:30:04.319Z,60.80
2019-06-10T00:31:24.952Z,60.70
2019-06-10T00:32:46.692Z,60.80
2019-06-10T00:34:09.989Z,60.70
2019-06-10T00:35:31.572Z,60.70
2019-06-10T00:36:53.400Z,60.70
2019-06-10T00:38:15.079Z,60.80
2019-06-10T00:39:36.471Z,60.70
2019-06-10T00:40:59.989Z,60.80
2019-06-10T00:42:21.680Z,60.80
2019-06-10T00:43:43.453Z,60.80
2019-06-10T00:45:07.482Z,60.70
2019-06-10T00:46:27.723Z,60.80
2019-06-10T00:47:52.044Z,60.70
2019-06-10T00:49:14.636Z,60.80
2019-06-10T00:50:35.085Z,60.80
2019-06-10T00:51:56.649Z,60.80
2019-06-10T00:53:20.942Z,60.80
2019-06-10T00:54:41.873Z,60.70
2019-06-10T00:56:05.190Z,60.80
2019-06-10T00:57:26.220Z,60.80
2019-06-10T00:58:48.362Z,60.80
2019-06-10T01:00:20.837Z,60.70
2019-06-10T01:01:32.925Z,60.80
2019-06-10T01:02:54.523Z,60.80
2019-06-10T01:04:16.649Z,61.40
2019-06-10T01:05:38.449Z,60.80
2019-06-10T01:07:00.763Z,60.70
2019-06-10T01:08:22.084Z,60.90
2019-06-10T01:09:43.932Z,60.70
2019-06-10T01:11:16.543Z,60.70
2019-06-10T01:12:28.463Z,60.70
2019-06-10T01:13:50.863Z,60.80
2019-06-10T01:15:15.198Z,60.80
2019-06-10T01:16:35.935Z,60.80
2019-06-10T01:17:57.323Z,60.80
2019-06-10T01:19:21.787Z,60.80
2019-06-10T01:20:42.583Z,60.80
2019-06-10T01:22:04.380Z,60.90
2019-06-10T01:23:26.043Z,60.80
2019-06-10T01:24:47.387Z,60.80
2019-06-10T01:26:12.347Z,60.80
2019-06-10T01:27:31.960Z,60.80
2019-06-10T01:28:53.282Z,60.80
2019-06-10T01:30:20.615Z,61.90
2019-06-10T01:31:37.854Z,60.80
2019-06-10T01:33:01.056Z,60.90
2019-06-10T01:34:22.205Z,60.80
2019-06-10T01:35:43.850Z,60.90
2019-06-10T01:37:06.700Z,60.80
2019-06-10T01:38:28.111Z,60.80
2019-06-10T01:39:51.494Z,60.80
2019-06-10T01:41:14.175Z,60.90
2019-06-10T01:42:35.676Z,60.90
2019-06-10T01:43:56.987Z,60.80
2019-06-10T01:45:21.106Z,60.80
2019-06-10T01:46:41.843Z,60.80
2019-06-10T01:48:04.432Z,60.80
2019-06-10T01:49:25.728Z,60.80
2019-06-10T01:50:47.495Z,60.80
2019-06-10T01:52:09.434Z,60.80
2019-06-10T01:53:31.780Z,60.30
2019-06-10T01:54:53.399Z,60.80
2019-06-10T01:56:15.843Z,60.80
2019-06-10T01:57:37.844Z,60.80
2019-06-10T01:59:01.446Z,60.90
2019-06-10T02:00:25.820Z,60.80
2019-06-10T02:01:45.516Z,60.80
2019-06-10T02:03:08.491Z,60.90
2019-06-10T02:04:32.153Z,60.90
2019-06-10T02:05:53.092Z,60.90
2019-06-10T02:07:16.710Z,60.90
2019-06-10T02:08:37.423Z,60.90
2019-06-10T02:10:01.197Z,61.00
2019-06-10T02:11:23.571Z,60.90
2019-06-10T02:12:45.935Z,60.90
2019-06-10T02:14:07.690Z,60.90
2019-06-10T02:15:31.423Z,60.90
2019-06-10T02:16:53.087Z,60.90
2019-06-10T02:18:15.343Z,60.90
2019-06-10T02:19:38.163Z,60.90
2019-06-10T02:21:00.904Z,61.00
2019-06-10T02:22:24.289Z,61.00
2019-06-10T02:23:45.599Z,61.00
2019-06-10T02:25:07.243Z,60.90
2019-06-10T02:26:30.733Z,60.90
2019-06-10T02:27:51.839Z,60.80
2019-06-10T02:29:14.676Z,61.90
2019-06-10T02:30:46.108Z,60.90
2019-06-10T02:32:04.509Z,60.90
2019-06-10T02:33:30.897Z,60.90
2019-06-10T02:35:02.086Z,60.90
2019-06-10T02:36:09.182Z,61.00
2019-06-10T02:37:33.868Z,60.90
2019-06-10T02:38:54.656Z,60.90
2019-06-10T02:40:19.308Z,60.90
2019-06-10T02:41:39.048Z,60.90
2019-06-10T02:43:03.553Z,60.90
2019-06-10T02:44:31.926Z,61.00
2019-06-10T02:45:46.537Z,60.90
2019-06-10T02:47:08.122Z,60.90
2019-06-10T02:48:30.682Z,60.90
2019-06-10T02:50:02.547Z,61.00
2019-06-10T02:51:18.173Z,61.10
2019-06-10T02:52:39.967Z,60.90
2019-06-10T02:54:04.453Z,60.90
2019-06-10T02:55:30.484Z,60.90
2019-06-10T02:56:47.571Z,61.00
2019-06-10T02:58:09.701Z,60.90
2019-06-10T02:59:35.499Z,60.90
2019-06-10T03:00:54.728Z,60.90
2019-06-10T03:02:18.280Z,60.90
2019-06-10T03:03:45.560Z,61.00
2019-06-10T03:05:04.543Z,61.00
2019-06-10T03:06:32.460Z,60.90
2019-06-10T03:07:47.989Z,61.00
2019-06-10T03:09:09.628Z,60.90
2019-06-10T03:10:33.937Z,62.00
2019-06-10T03:11:54.287Z,61.00
2019-06-10T03:13:15.915Z,60.90
2019-06-10T03:14:37.828Z,60.90
2019-06-10T03:15:59.544Z,60.90
2019-06-10T03:17:24.743Z,61.10
2019-06-10T03:18:44.441Z,60.90
2019-06-10T03:20:06.348Z,61.10
2019-06-10T03:21:28.531Z,61.00
2019-06-10T03:22:52.416Z,61.10
2019-06-10T03:24:13.270Z,61.10
2019-06-10T03:25:35.091Z,60.90
2019-06-10T03:26:56.789Z,60.90
2019-06-10T03:28:19.427Z,61.00
2019-06-10T03:29:42.144Z,61.00
2019-06-10T03:31:05.938Z,61.00
2019-06-10T03:32:33.265Z,61.10
2019-06-10T03:33:53.882Z,61.00
2019-06-10T03:35:13.391Z,61.00
2019-06-10T03:36:35.023Z,61.00
2019-06-10T03:37:56.616Z,61.00
2019-06-10T03:39:18.662Z,61.00
2019-06-10T03:40:39.999Z,61.00
2019-06-10T03:42:02.292Z,61.00
2019-06-10T03:43:26.327Z,61.00
2019-06-10T03:44:46.987Z,61.10
2019-06-10T03:46:08.239Z,61.00
2019-06-10T03:47:32.308Z,61.90
2019-06-10T03:48:53.193Z,61.00
2019-06-10T03:50:14.839Z,61.90
2019-06-10T03:51:36.194Z,61.00
2019-06-10T03:53:00.946Z,61.00
2019-06-10T03:54:24.438Z,61.00
2019-06-10T03:55:44.404Z,61.10
2019-06-10T03:57:05.667Z,61.00
2019-06-10T03:58:29.160Z,61.10
2019-06-10T03:59:52.658Z,61.10
2019-06-10T04:01:13.476Z,61.00
2019-06-10T04:02:35.284Z,61.00
2019-06-10T04:03:57.692Z,61.10
2019-06-10T04:05:19.447Z,61.10
2019-06-10T04:06:44.176Z,61.00
2019-06-10T04:08:04.623Z,61.00
2019-06-10T04:09:27.553Z,61.00
2019-06-10T04:10:51.683Z,61.00
2019-06-10T04:12:12.602Z,61.00
2019-06-10T04:13:34.688Z,60.90
2019-06-10T04:14:56.112Z,61.00
2019-06-10T04:16:17.775Z,60.90
2019-06-10T04:17:39.164Z,61.40
2019-06-10T04:19:02.492Z,61.00
2019-06-10T04:20:26.485Z,61.00
2019-06-10T04:21:47.231Z,60.90
2019-06-10T04:23:08.855Z,61.80
2019-06-10T04:24:32.692Z,60.90
2019-06-10T04:25:53.535Z,61.00
2019-06-10T04:27:14.831Z,60.90
2019-06-10T04:28:36.375Z,60.90
2019-06-10T04:29:58.303Z,60.90
2019-06-10T04:31:21.294Z,60.90
2019-06-10T04:32:43.047Z,60.90
2019-06-10T04:34:04.707Z,60.90
2019-06-10T04:35:27.625Z,61.00
2019-06-10T04:36:52.416Z,60.80
2019-06-10T04:38:13.189Z,60.90
2019-06-10T04:39:35.135Z,60.90
2019-06-10T04:40:56.834Z,61.80
2019-06-10T04:42:18.456Z,60.80
2019-06-10T04:43:42.943Z,60.80
2019-06-10T04:45:04.316Z,60.80
2019-06-10T04:46:26.802Z,60.90
2019-06-10T04:47:48.407Z,60.70
2019-06-10T04:49:10.223Z,60.70
2019-06-10T04:50:41.529Z,60.50
2019-06-10T04:51:55.411Z,60.50
2019-06-10T04:53:16.869Z,60.50
2019-06-10T04:54:38.106Z,60.50
2019-06-10T04:55:59.827Z,60.50
2019-06-10T04:57:23.418Z,60.40
2019-06-10T04:58:44.188Z,60.40
2019-06-10T05:00:13.918Z,61.30
2019-06-10T05:01:33.453Z,60.20
2019-06-10T05:02:54.299Z,60.80
2019-06-10T05:04:16.284Z,60.20
2019-06-10T05:05:38.192Z,60.10
2019-06-10T05:07:01.980Z,60.00
2019-06-10T05:08:23.940Z,60.10
2019-06-10T05:09:45.679Z,60.00
2019-06-10T05:11:07.623Z,60.10
2019-06-10T05:12:29.650Z,60.10
2019-06-10T05:13:53.252Z,60.10
2019-06-10T05:15:14.078Z,60.00
2019-06-10T05:16:36.003Z,60.60
2019-06-10T05:17:57.739Z,60.00
2019-06-10T05:19:19.837Z,60.00
2019-06-10T05:20:54.089Z,60.10
2019-06-10T05:22:04.643Z,60.00
2019-06-10T05:23:26.422Z,60.00
2019-06-10T05:24:47.865Z,59.90
2019-06-10T05:26:09.444Z,59.90
2019-06-10T05:27:33.015Z,59.80
2019-06-10T05:28:53.845Z,59.80
2019-06-10T05:30:15.544Z,59.70
2019-06-10T05:31:36.950Z,59.70
2019-06-10T05:32:58.682Z,59.60
2019-06-10T05:34:20.484Z,59.60
2019-06-10T05:35:42.741Z,59.50
2019-06-10T05:37:04.275Z,59.60
2019-06-10T05:38:27.531Z,59.50
2019-06-10T05:39:49.057Z,59.50
2019-06-10T05:41:13.089Z,59.50
2019-06-10T05:42:35.839Z,59.40
2019-06-10T05:43:56.772Z,59.30
2019-06-10T05:45:18.121Z,59.30
2019-06-10T05:46:39.487Z,59.30
2019-06-10T05:48:02.827Z,59.20
2019-06-10T05:49:25.892Z,59.10
2019-06-10T05:50:59.293Z,59.20
2019-06-10T05:52:12.503Z,59.20
2019-06-10T05:53:35.483Z,59.30
2019-06-10T05:54:56.987Z,59.20
2019-06-10T05:56:18.499Z,59.30
2019-06-10T05:57:42.618Z,60.40
2019-06-10T05:59:04.380Z,59.30
2019-06-10T06:00:27.493Z,59.30
2019-06-10T06:01:48.967Z,59.30
2019-06-10T06:03:12.060Z,59.30
2019-06-10T06:04:34.704Z,59.30
2019-06-10T06:05:56.735Z,59.40
2019-06-10T06:07:18.292Z,59.50
2019-06-10T06:08:39.949Z,59.40
2019-06-10T06:10:02.399Z,59.50
2019-06-10T06:11:25.181Z,59.40
2019-06-10T06:12:46.960Z,59.30
2019-06-10T06:14:08.555Z,59.40
2019-06-10T06:15:30.052Z,59.50
2019-06-10T06:16:53.335Z,59.40
2019-06-10T06:18:14.711Z,59.40
2019-06-10T06:19:38.658Z,59.50
2019-06-10T06:21:19.085Z,60.50
2019-06-10T06:22:22.544Z,59.50
2019-06-10T06:23:43.971Z,59.50
2019-06-10T06:25:06.523Z,59.40
2019-06-10T06:26:28.892Z,59.40
2019-06-10T06:27:52.451Z,59.50
2019-06-10T06:29:14.396Z,59.50
2019-06-10T06:30:36.476Z,59.60
2019-06-10T06:31:59.168Z,59.50
2019-06-10T06:33:22.118Z,59.50
2019-06-10T06:34:44.530Z,59.50
2019-06-10T06:36:07.789Z,59.60
2019-06-10T06:37:29.123Z,59.70
2019-06-10T06:38:52.855Z,59.70
2019-06-10T06:40:13.740Z,59.60
2019-06-10T06:41:37.156Z,59.60
2019-06-10T06:42:58.510Z,59.70
2019-06-10T06:44:20.292Z,59.60
2019-06-10T06:45:42.703Z,59.60
2019-06-10T06:47:04.610Z,59.60
2019-06-10T06:48:26.312Z,59.60
2019-06-10T06:49:47.847Z,59.60
2019-06-10T06:51:09.364Z,59.60
2019-06-10T06:52:55.611Z,60.60
2019-06-10T06:53:56.260Z,59.60
2019-06-10T06:55:17.555Z,59.60
2019-06-10T06:56:40.478Z,59.80
2019-06-10T06:58:03.411Z,59.70
2019-06-10T06:59:25.094Z,60.30
2019-06-10T07:01:00.524Z,59.60
2019-06-10T07:02:09.205Z,59.90
2019-06-10T07:03:34.493Z,59.80
2019-06-10T07:04:54.188Z,59.70
2019-06-10T07:06:15.559Z,59.70
2019-06-10T07:07:37.421Z,59.70
2019-06-10T07:09:04.614Z,59.70
2019-06-10T07:10:23.243Z,59.70
2019-06-10T07:11:45.534Z,59.70
2019-06-10T07:13:06.886Z,59.80
2019-06-10T07:14:28.546Z,59.60
2019-06-10T07:15:49.903Z,59.60
2019-06-10T07:17:12.606Z,59.70
2019-06-10T07:18:39.952Z,59.90
2019-06-10T07:19:57.632Z,59.80
2019-06-10T07:21:19.706Z,59.60
2019-06-10T07:22:42.727Z,59.60
2019-06-10T07:24:04.140Z,59.90
2019-06-10T07:25:25.536Z,59.70
2019-06-10T07:26:52.128Z,59.80
2019-06-10T07:28:12.543Z,59.70
2019-06-10T07:29:35.717Z,59.80
2019-06-10T07:30:56.591Z,59.80
2019-06-10T07:32:18.411Z,60.00
2019-06-10T07:33:44.749Z,59.90
2019-06-10T07:35:04.497Z,59.90
2019-06-10T07:36:25.871Z,59.80
2019-06-10T07:37:47.518Z,59.80
2019-06-10T07:39:08.947Z,59.90
2019-06-10T07:40:32.958Z,59.90
2019-06-10T07:41:53.422Z,59.90
2019-06-10T07:43:15.106Z,60.80
2019-06-10T07:44:37.582Z,59.90
2019-06-10T07:45:59.361Z,59.90
2019-06-10T07:47:23.166Z,60.00
2019-06-10T07:48:47.809Z,59.90
2019-06-10T07:50:07.047Z,60.00
2019-06-10T07:51:28.615Z,59.90
2019-06-10T07:52:52.767Z,59.90
2019-06-10T07:54:13.804Z,60.00
2019-06-10T07:55:36.653Z,59.90
2019-06-10T07:56:59.230Z,59.90
2019-06-10T07:58:22.457Z,59.90
2019-06-10T07:59:45.761Z,59.80
2019-06-10T08:01:07.550Z,59.90
2019-06-10T08:02:29.323Z,59.90
2019-06-10T08:03:52.621Z,59.90
2019-06-10T08:05:13.864Z,59.90
2019-06-10T08:06:36.418Z,59.80
2019-06-10T08:07:58.203Z,59.80
2019-06-10T08:09:19.557Z,59.90
2019-06-10T08:10:44.715Z,59.90
2019-06-10T08:12:06.051Z,59.90
2019-06-10T08:13:27.975Z,60.80
2019-06-10T08:14:49.703Z,59.90
2019-06-10T08:16:13.066Z,59.80
2019-06-10T08:17:35.704Z,59.80
2019-06-10T08:19:21.861Z,60.00
2019-06-10T08:20:22.250Z,59.80
2019-06-10T08:21:47.421Z,59.90
2019-06-10T08:23:07.363Z,59.90
2019-06-10T08:24:28.795Z,59.80
2019-06-10T08:25:56.540Z,59.90
2019-06-10T08:27:13.395Z,60.00
2019-06-10T08:28:35.504Z,59.90
2019-06-10T08:30:14.136Z,60.00
2019-06-10T08:31:22.562Z,60.00
2019-06-10T08:32:46.802Z,60.00
2019-06-10T08:34:07.015Z,59.90
2019-06-10T08:35:39.302Z,59.90
2019-06-10T08:36:54.285Z,60.00
2019-06-10T08:38:14.683Z,60.00
2019-06-10T08:39:36.288Z,60.00
2019-06-10T08:40:57.626Z,60.00
2019-06-10T08:42:19.588Z,60.00
2019-06-10T08:43:44.757Z,60.00
2019-06-10T08:45:04.568Z,59.90
2019-06-10T08:46:25.981Z,60.00
2019-06-10T08:47:49.090Z,60.00
2019-06-10T08:49:12.656Z,60.00
2019-06-10T08:50:33.968Z,60.00
2019-06-10T08:51:55.787Z,60.80
2019-06-10T08:53:18.298Z,60.70
2019-06-10T08:54:41.209Z,60.00
2019-06-10T08:56:03.294Z,60.00
2019-06-10T08:57:25.237Z,60.00
2019-06-10T08:58:49.684Z,60.00
2019-06-10T09:00:12.523Z,60.00
2019-06-10T09:01:33.404Z,60.00
2019-06-10T09:02:55.415Z,60.00
2019-06-10T09:04:16.787Z,60.00
2019-06-10T09:05:40.459Z,60.10
2019-06-10T09:07:04.179Z,60.10
2019-06-10T09:08:24.739Z,60.00
2019-06-10T09:09:50.002Z,60.00
2019-06-10T09:11:08.739Z,60.00
2019-06-10T09:12:36.317Z,61.00
2019-06-10T09:13:53.396Z,61.00
2019-06-10T09:15:15.208Z,60.10
2019-06-10T09:16:36.836Z,60.00
2019-06-10T09:17:58.460Z,60.10
2019-06-10T09:19:22.087Z,60.10
2019-06-10T09:20:47.524Z,60.20
2019-06-10T09:22:05.352Z,60.10
2019-06-10T09:23:27.172Z,60.10
2019-06-10T09:24:52.233Z,60.10
2019-06-10T09:26:12.601Z,60.10
2019-06-10T09:27:33.823Z,60.10
2019-06-10T09:28:56.530Z,60.10
2019-06-10T09:30:18.148Z,60.10
2019-06-10T09:31:40.491Z,60.10
2019-06-10T09:33:04.290Z,60.10
2019-06-10T09:34:25.500Z,60.20
2019-06-10T09:35:50.346Z,60.20
2019-06-10T09:37:12.243Z,60.20
2019-06-10T09:38:33.721Z,60.10
2019-06-10T09:39:59.735Z,60.20
2019-06-10T09:41:19.179Z,60.20
2019-06-10T09:42:44.151Z,60.20
2019-06-10T09:44:03.849Z,60.20
2019-06-10T09:45:25.140Z,61.10
2019-06-10T09:46:48.894Z,60.20
2019-06-10T09:48:12.940Z,60.20
2019-06-10T09:49:33.995Z,60.20
2019-06-10T09:50:58.686Z,60.10
2019-06-10T09:52:18.905Z,60.10
2019-06-10T09:53:46.349Z,60.20
2019-06-10T09:55:05.294Z,61.00
2019-06-10T09:56:26.423Z,60.10
2019-06-10T09:57:53.163Z,60.10
2019-06-10T09:59:12.564Z,60.20
2019-06-10T10:00:49.278Z,60.20
2019-06-10T10:02:08.380Z,60.10
2019-06-10T10:03:32.616Z,60.60
2019-06-10T10:04:58.094Z,60.20
2019-06-10T10:06:16.202Z,60.10
2019-06-10T10:07:38.347Z,60.10
2019-06-10T10:08:59.784Z,60.10
2019-06-10T10:10:24.527Z,60.20
2019-06-10T10:11:47.677Z,60.20
2019-06-10T10:13:08.688Z,60.20
2019-06-10T10:14:30.571Z,60.20
2019-06-10T10:15:54.220Z,60.20
2019-06-10T10:17:15.410Z,60.20
2019-06-10T10:18:36.760Z,60.20
2019-06-10T10:19:58.555Z,60.30
2019-06-10T10:21:22.135Z,60.30
2019-06-10T10:22:44.395Z,60.20
2019-06-10T10:24:10.609Z,60.20
2019-06-10T10:25:28.868Z,60.20
2019-06-10T10:26:55.132Z,60.20
2019-06-10T10:28:13.471Z,60.30
2019-06-10T10:29:35.471Z,60.10
2019-06-10T10:30:58.109Z,60.10
2019-06-10T10:32:22.574Z,60.20
2019-06-10T10:33:42.757Z,60.10
2019-06-10T10:35:05.726Z,60.10
2019-06-10T10:36:27.157Z,60.10
2019-06-10T10:37:48.643Z,60.10
2019-06-10T10:39:10.048Z,60.10
2019-06-10T10:40:32.571Z,61.20
2019-06-10T10:41:56.933Z,60.20
2019-06-10T10:43:31.915Z,60.20
2019-06-10T10:44:40.191Z,60.10
2019-06-10T10:46:05.419Z,60.10
2019-06-10T10:47:27.516Z,60.10
2019-06-10T10:48:47.420Z,60.10
2019-06-10T10:50:09.360Z,60.10
2019-06-10T10:51:32.662Z,60.10
2019-06-10T10:52:54.206Z,60.20
2019-06-10T10:54:28.712Z,60.10
2019-06-10T10:55:39.464Z,60.10
2019-06-10T10:57:02.589Z,60.10
2019-06-10T10:58:24.327Z,60.10
2019-06-10T10:59:46.579Z,60.10
2019-06-10T11:01:09.023Z,60.10
2019-06-10T11:02:32.195Z,60.10
2019-06-10T11:03:58.737Z,60.10
2019-06-10T11:05:33.311Z,60.20
2019-06-10T11:06:56.900Z,60.00
2019-06-10T11:08:17.475Z,60.10
2019-06-10T11:09:38.995Z,60.10
2019-06-10T11:11:05.178Z,60.00
2019-06-10T11:12:24.323Z,60.10
2019-06-10T11:13:45.659Z,60.10
2019-06-10T11:15:08.271Z,60.10
2019-06-10T11:16:32.445Z,60.10
2019-06-10T11:17:55.142Z,60.10
2019-06-10T11:19:15.667Z,60.20
2019-06-10T11:20:37.254Z,60.10
2019-06-10T11:21:58.629Z,60.20
2019-06-10T11:23:22.664Z,60.10
2019-06-10T11:24:44.915Z,60.10
2019-06-10T11:26:06.901Z,61.00
2019-06-10T11:27:28.365Z,60.20
2019-06-10T11:28:49.972Z,60.20
2019-06-10T11:30:12.382Z,60.10
2019-06-10T11:31:34.348Z,60.20
2019-06-10T11:32:57.843Z,60.10
2019-06-10T11:34:19.863Z,61.00
2019-06-10T11:35:42.784Z,60.20
2019-06-10T11:37:04.363Z,60.10
2019-06-10T11:38:26.048Z,60.10
2019-06-10T11:39:48.121Z,60.10
2019-06-10T11:41:13.243Z,60.10
2019-06-10T11:42:33.515Z,60.10
2019-06-10T11:43:58.074Z,60.10
2019-06-10T11:45:18.314Z,60.10
2019-06-10T11:46:42.856Z,60.10
2019-06-10T11:48:03.709Z,60.20
2019-06-10T11:49:25.105Z,60.10
2019-06-10T11:50:47.133Z,60.30
2019-06-10T11:52:09.054Z,60.20
2019-06-10T11:53:31.208Z,60.10
2019-06-10T11:55:05.428Z,60.10
2019-06-10T11:56:15.396Z,60.10
2019-06-10T11:57:37.019Z,60.90
2019-06-10T11:59:00.308Z,60.20
2019-06-10T12:00:23.191Z,60.20
2019-06-10T12:01:45.171Z,60.20
2019-06-10T12:03:06.655Z,61.10
2019-06-10T12:04:28.063Z,60.10
2019-06-10T12:05:53.088Z,60.20
2019-06-10T12:07:13.532Z,60.10
2019-06-10T12:08:35.232Z,60.20
2019-06-10T12:09:59.257Z,60.20
2019-06-10T12:11:19.612Z,60.20
2019-06-10T12:12:43.307Z,60.30
2019-06-10T12:14:05.698Z,60.10
2019-06-10T12:15:27.446Z,60.20
2019-06-10T12:17:17.644Z,60.20
2019-06-10T12:18:13.163Z,60.20
2019-06-10T12:19:34.740Z,60.20
2019-06-10T12:21:02.864Z,60.20
2019-06-10T12:22:19.803Z,60.30
2019-06-10T12:23:43.517Z,60.20
2019-06-10T12:25:28.425Z,60.30
2019-06-10T12:26:29.335Z,60.20
2019-06-10T12:27:55.075Z,60.30
2019-06-10T12:29:14.275Z,60.30
2019-06-10T12:30:35.601Z,60.20
2019-06-10T12:32:00.014Z,60.10
2019-06-10T12:33:24.734Z,60.20
2019-06-10T12:34:46.163Z,61.10
2019-06-10T12:36:07.260Z,60.20
2019-06-10T12:37:28.995Z,60.20
2019-06-10T12:38:55.159Z,60.20
2019-06-10T12:40:14.077Z,60.30
2019-06-10T12:41:35.528Z,60.30
2019-06-10T12:42:59.738Z,60.20
2019-06-10T12:44:19.981Z,60.20
2019-06-10T12:45:43.296Z,60.30
2019-06-10T12:47:07.615Z,60.20
2019-06-10T12:48:27.625Z,60.30
2019-06-10T12:49:49.224Z,60.20
2019-06-10T12:51:13.191Z,60.20
2019-06-10T12:52:34.114Z,60.20
2019-06-10T12:53:57.306Z,60.20
2019-06-10T12:55:18.779Z,60.30
2019-06-10T12:56:42.898Z,60.30
2019-06-10T12:58:05.908Z,60.20
2019-06-10T12:59:27.099Z,60.30
2019-06-10T13:00:48.533Z,60.20
2019-06-10T13:02:19.021Z,60.30
2019-06-10T13:03:33.953Z,61.10
2019-06-10T13:04:55.554Z,60.20
2019-06-10T13:06:17.163Z,60.20
2019-06-10T13:07:38.979Z,60.20
2019-06-10T13:09:03.668Z,60.20
2019-06-10T13:10:36.029Z,60.20
2019-06-10T13:11:57.881Z,60.20
2019-06-10T13:13:19.597Z,60.20
2019-06-10T13:14:43.567Z,60.20
2019-06-10T13:16:08.108Z,60.20
2019-06-10T13:17:27.144Z,60.20
2019-06-10T13:18:48.699Z,60.30
2019-06-10T13:20:13.429Z,60.20
2019-06-10T13:21:33.220Z,60.20
2019-06-10T13:22:54.747Z,60.20
2019-06-10T13:24:16.334Z,60.20
2019-06-10T13:25:50.315Z,60.30
2019-06-10T13:27:03.439Z,60.20
2019-06-10T13:28:24.666Z,60.20
2019-06-10T13:29:46.231Z,60.20
2019-06-10T13:31:09.861Z,60.20
2019-06-10T13:32:32.502Z,60.20
2019-06-10T13:33:54.016Z,60.20
2019-06-10T13:35:16.338Z,60.10
2019-06-10T13:36:37.755Z,60.30
2019-06-10T13:37:59.267Z,60.20
2019-06-10T13:39:22.308Z,60.20
2019-06-10T13:40:44.528Z,60.20
2019-06-10T13:42:08.173Z,60.20
2019-06-10T13:43:28.933Z,60.30
2019-06-10T13:44:52.399Z,60.20
2019-06-10T13:46:13.683Z,60.30
2019-06-10T13:47:35.356Z,60.20
2019-06-10T13:48:56.931Z,60.20
2019-06-10T13:50:19.456Z,60.20
2019-06-10T13:51:41.661Z,60.40
2019-06-10T13:53:06.576Z,60.30
2019-06-10T13:54:26.760Z,61.20
2019-06-10T13:55:48.606Z,60.20
2019-06-10T13:57:13.620Z,60.20
2019-06-10T13:58:32.991Z,60.20
2019-06-10T13:59:54.688Z,61.20
2019-06-10T14:01:21.445Z,60.30
2019-06-10T14:02:39.500Z,60.30
2019-06-10T14:04:09.949Z,60.30
2019-06-10T14:05:24.012Z,60.30
2019-06-10T14:06:50.186Z,60.30
2019-06-10T14:08:12.721Z,61.20
2019-06-10T14:09:32.991Z,60.40
2019-06-10T14:10:55.150Z,60.30
2019-06-10T14:12:17.534Z,60.40
2019-06-10T14:13:39.288Z,60.30
2019-06-10T14:15:04.096Z,60.40
2019-06-10T14:16:24.101Z,60.30
2019-06-10T14:17:46.259Z,60.70
2019-06-10T14:19:09.344Z,60.40
2019-06-10T14:20:32.541Z,60.40
2019-06-10T14:21:53.759Z,60.40
2019-06-10T14:23:17.591Z,60.40
2019-06-10T14:24:38.851Z,60.30
2019-06-10T14:26:02.495Z,60.40
2019-06-10T14:27:24.791Z,60.30
2019-06-10T14:28:46.236Z,60.40
2019-06-10T14:30:09.191Z,60.40
2019-06-10T14:31:42.808Z,61.30
2019-06-10T14:32:54.256Z,61.30
2019-06-10T14:34:18.057Z,61.30
2019-06-10T14:35:42.722Z,60.40
2019-06-10T14:37:03.717Z,60.50
2019-06-10T14:38:25.364Z,60.30
2019-06-10T14:39:48.036Z,60.40
2019-06-10T14:41:10.075Z,60.40
2019-06-10T14:42:32.313Z,60.40
2019-06-10T14:43:53.617Z,60.40
2019-06-10T14:45:16.558Z,60.50
2019-06-10T14:46:38.636Z,60.40
2019-06-10T14:48:02.714Z,60.50
2019-06-10T14:49:23.337Z,60.40
2019-06-10T14:50:44.669Z,60.40
2019-06-10T14:52:06.986Z,60.50
2019-06-10T14:53:28.590Z,60.40
2019-06-10T14:54:52.946Z,60.40
2019-06-10T14:56:17.265Z,60.50
2019-06-10T14:57:36.543Z,60.50
2019-06-10T14:58:58.188Z,60.40
2019-06-10T15:00:19.543Z,60.50
2019-06-10T15:01:42.627Z,60.50
2019-06-10T15:03:05.721Z,60.40
2019-06-10T15:04:27.256Z,61.40
2019-06-10T15:05:48.789Z,60.50
2019-06-10T15:07:11.442Z,60.50
2019-06-10T15:08:33.256Z,60.40
2019-06-10T15:09:55.612Z,60.40
2019-06-10T15:11:17.216Z,60.50
2019-06-10T15:12:38.815Z,61.40
2019-06-10T15:14:02.746Z,61.40
2019-06-10T15:15:24.420Z,60.50
2019-06-10T15:16:46.026Z,60.50
2019-06-10T15:18:07.819Z,61.40
2019-06-10T15:19:29.316Z,60.50
2019-06-10T15:20:53.164Z,60.50
2019-06-10T15:22:15.389Z,60.50
2019-06-10T15:23:38.200Z,60.50
2019-06-10T15:24:59.895Z,60.50
2019-06-10T15:26:21.295Z,60.40
2019-06-10T15:27:42.883Z,60.50
2019-06-10T15:29:04.728Z,60.50
2019-06-10T15:30:29.086Z,60.50
2019-06-10T15:32:06.994Z,60.70
2019-06-10T15:33:14.980Z,60.50
2019-06-10T15:34:35.328Z,60.60
2019-06-10T15:35:56.711Z,61.10
2019-06-10T15:37:19.354Z,60.60
2019-06-10T15:38:43.883Z,60.50
2019-06-10T15:40:05.533Z,60.50
2019-06-10T15:41:26.918Z,60.60
2019-06-10T15:42:48.225Z,60.50
2019-06-10T15:44:09.795Z,60.50
2019-06-10T15:45:32.470Z,60.60
2019-06-10T15:46:53.937Z,60.50
2019-06-10T15:48:18.260Z,60.50
2019-06-10T15:49:38.672Z,60.50
2019-06-10T15:51:02.958Z,60.60
2019-06-10T15:52:25.053Z,60.50
2019-06-10T15:53:47.653Z,60.50
2019-06-10T15:55:10.633Z,61.40
2019-06-10T15:56:45.099Z,60.60
2019-06-10T15:57:55.645Z,61.50
2019-06-10T15:59:18.634Z,60.50
2019-06-10T16:00:42.595Z,60.50
2019-06-10T16:02:04.004Z,60.50
2019-06-10T16:03:25.864Z,60.50
2019-06-10T16:04:48.543Z,60.60
2019-06-10T16:06:09.918Z,61.60
2019-06-10T16:07:32.569Z,60.50
2019-06-10T16:08:54.475Z,60.50
2019-06-10T16:10:19.647Z,60.60
2019-06-10T16:11:40.445Z,60.60
2019-06-10T16:13:03.428Z,60.50
2019-06-10T16:14:25.434Z,60.60
2019-06-10T16:15:47.364Z,60.60
2019-06-10T16:17:08.697Z,60.60
2019-06-10T16:18:32.707Z,59.80
2019-06-10T16:19:53.325Z,60.70
2019-06-10T16:21:16.975Z,60.60
2019-06-10T16:22:38.536Z,60.60
2019-06-10T16:24:02.589Z,60.60
2019-06-10T16:25:26.313Z,60.60
2019-06-10T16:26:46.191Z,60.70
2019-06-10T16:28:07.449Z,60.70
2019-06-10T16:29:28.804Z,60.80
2019-06-10T16:30:53.317Z,60.60
2019-06-10T16:32:14.629Z,60.60
2019-06-10T16:33:36.406Z,60.60
2019-06-10T16:34:57.828Z,60.70
2019-06-10T16:36:19.528Z,60.70
2019-06-10T16:37:42.215Z,60.80
2019-06-10T16:39:05.428Z,60.70
2019-06-10T16:40:27.327Z,60.60
2019-06-10T16:41:48.727Z,61.60
2019-06-10T16:43:10.068Z,60.80
2019-06-10T16:44:32.927Z,60.70
2019-06-10T16:45:54.514Z,60.70
2019-06-10T16:47:16.947Z,60.70
2019-06-10T16:48:38.499Z,60.70
2019-06-10T16:49:59.891Z,60.40
2019-06-10T16:51:21.768Z,61.70
2019-06-10T16:52:43.289Z,60.90
2019-06-10T16:54:04.978Z,60.70
2019-06-10T16:55:27.283Z,60.80
2019-06-10T16:56:49.384Z,60.70
2019-06-10T16:58:12.916Z,60.70
2019-06-10T16:59:33.859Z,60.70
2019-06-10T17:00:55.459Z,60.70
2019-06-10T17:02:17.182Z,60.70
2019-06-10T17:03:39.039Z,60.70
2019-06-10T17:05:03.037Z,60.70
2019-06-10T17:06:25.170Z,61.70
2019-06-10T17:07:46.457Z,61.70
2019-06-10T17:09:08.072Z,60.80
2019-06-10T17:10:32.015Z,60.70
2019-06-10T17:11:52.953Z,60.80
2019-06-10T17:13:14.612Z,60.70
2019-06-10T17:14:36.309Z,60.80
2019-06-10T17:15:57.884Z,61.70
2019-06-10T17:17:20.480Z,60.80
2019-06-10T17:18:42.115Z,60.80
2019-06-10T17:20:05.875Z,60.90
2019-06-10T17:21:30.325Z,60.80
2019-06-10T17:22:52.430Z,60.80
2019-06-10T17:24:14.115Z,60.90
2019-06-10T17:25:35.819Z,60.90
2019-06-10T17:26:57.191Z,60.80
2019-06-10T17:28:20.663Z,60.90
2019-06-10T17:29:42.777Z,60.90
2019-06-10T17:31:04.397Z,61.80
2019-06-10T17:32:26.865Z,60.90
2019-06-10T17:33:49.164Z,60.90
2019-06-10T17:35:12.509Z,60.90
2019-06-10T17:36:35.441Z,60.90
2019-06-10T17:37:56.900Z,60.90
2019-06-10T17:39:20.508Z,60.90
2019-06-10T17:40:42.665Z,60.90